sensor_id;sensor_type;location;lat;lon;timestamp;temperature;humidity
25568;DHT22;13455;51.480;7.594;2023-04-25T00:01:17;6.70;99.90
25568;DHT22;13455;51.480;7.594;2023-04-25T00:03:43;6.60;99.90
25568;DHT22;13455;51.480;7.594;2023-04-25T00:06:08;6.60;99.90
25568;DHT22;13455;51.480;7.594;2023-04-25T00:08:34;6.40;99.90
25568;DHT22;13455;51.480;7.594;2023-04-25T00:11:00;7.20;99.90
25568;DHT22;13455;51.480;7.594;2023-04-25T00:15:53;7.00;99.90
25568;DHT22;13455;51.480;7.594;2023-04-25T01:26:42;7.20;99.90
25568;DHT22;13455;51.480;7.594;2023-04-25T01:29:16;7.10;99.90
25568;DHT22;13455;51.480;7.594;2023-04-25T01:31:42;7.00;99.90
25568;DHT22;13455;51.480;7.594;2023-04-25T01:34:08;7.00;99.90
25568;DHT22;13455;51.480;7.594;2023-04-25T01:36:34;7.10;99.90
25568;DHT22;13455;51.480;7.594;2023-04-25T01:39:05;7.10;99.90
25568;DHT22;13455;51.480;7.594;2023-04-25T01:41:33;7.00;99.90
25568;DHT22;13455;51.480;7.594;2023-04-25T01:44:00;7.10;99.90
25568;DHT22;13455;51.480;7.594;2023-04-25T01:46:27;6.90;99.90
25568;DHT22;13455;51.480;7.594;2023-04-25T01:48:53;6.80;99.90
25568;DHT22;13455;51.480;7.594;2023-04-25T01:56:11;7.20;99.90
25568;DHT22;13455;51.480;7.594;2023-04-25T02:03:30;7.10;99.90
25568;DHT22;13455;51.480;7.594;2023-04-25T02:10:48;7.10;99.90
25568;DHT22;13455;51.480;7.594;2023-04-25T02:32:42;7.00;99.90
25568;DHT22;13455;51.480;7.594;2023-04-25T02:37:35;6.90;99.90
25568;DHT22;13455;51.480;7.594;2023-04-25T02:40:02;8.20;99.90
25568;DHT22;13455;51.480;7.594;2023-04-25T02:42:28;6.90;99.90
25568;DHT22;13455;51.480;7.594;2023-04-25T02:44:54;6.90;99.90
25568;DHT22;13455;51.480;7.594;2023-04-25T03:23:52;6.90;99.90
25568;DHT22;13455;51.480;7.594;2023-04-25T03:26:18;6.90;99.90
25568;DHT22;13455;51.480;7.594;2023-04-25T03:28:43;6.90;99.90
25568;DHT22;13455;51.480;7.594;2023-04-25T03:31:09;8.00;99.90
25568;DHT22;13455;51.480;7.594;2023-04-25T03:33:34;6.90;99.90
25568;DHT22;13455;51.480;7.594;2023-04-25T03:36:00;6.90;99.90
25568;DHT22;13455;51.480;7.594;2023-04-25T03:38:26;6.90;99.90
25568;DHT22;13455;51.480;7.594;2023-04-25T03:40:51;6.80;99.90
25568;DHT22;13455;51.480;7.594;2023-04-25T03:43:17;6.90;99.90
25568;DHT22;13455;51.480;7.594;2023-04-25T03:45:42;6.80;99.90
25568;DHT22;13455;51.480;7.594;2023-04-25T03:48:08;7.30;99.90
25568;DHT22;13455;51.480;7.594;2023-04-25T03:50:34;6.90;99.90
25568;DHT22;13455;51.480;7.594;2023-04-25T03:53:00;6.90;99.90
25568;DHT22;13455;51.480;7.594;2023-04-25T03:55:25;7.00;99.90
25568;DHT22;13455;51.480;7.594;2023-04-25T03:57:51;6.80;99.90
25568;DHT22;13455;51.480;7.594;2023-04-25T04:00:17;6.80;99.90
25568;DHT22;13455;51.480;7.594;2023-04-25T04:02:42;6.90;99.90
25568;DHT22;13455;51.480;7.594;2023-04-25T04:05:08;6.90;99.90
25568;DHT22;13455;51.480;7.594;2023-04-25T04:07:34;6.90;99.90
25568;DHT22;13455;51.480;7.594;2023-04-25T04:10:08;6.90;99.90
25568;DHT22;13455;51.480;7.594;2023-04-25T04:12:34;6.90;99.90
25568;DHT22;13455;51.480;7.594;2023-04-25T04:15:00;6.90;99.90
25568;DHT22;13455;51.480;7.594;2023-04-25T04:17:26;6.80;99.90
25568;DHT22;13455;51.480;7.594;2023-04-25T04:19:51;6.80;99.90
25568;DHT22;13455;51.480;7.594;2023-04-25T04:22:17;6.80;99.90
25568;DHT22;13455;51.480;7.594;2023-04-25T04:24:42;6.70;99.90
25568;DHT22;13455;51.480;7.594;2023-04-25T04:27:12;6.80;99.90
25568;DHT22;13455;51.480;7.594;2023-04-25T04:29:38;6.80;99.90
25568;DHT22;13455;51.480;7.594;2023-04-25T04:32:04;6.90;99.90
25568;DHT22;13455;51.480;7.594;2023-04-25T04:34:30;6.90;99.90
25568;DHT22;13455;51.480;7.594;2023-04-25T04:36:56;6.80;99.90
25568;DHT22;13455;51.480;7.594;2023-04-25T04:39:22;6.80;99.90
25568;DHT22;13455;51.480;7.594;2023-04-25T04:41:48;6.70;99.90
25568;DHT22;13455;51.480;7.594;2023-04-25T04:44:14;6.60;99.90
25568;DHT22;13455;51.480;7.594;2023-04-25T04:46:40;6.60;99.90
25568;DHT22;13455;51.480;7.594;2023-04-25T04:49:09;6.60;99.90
25568;DHT22;13455;51.480;7.594;2023-04-25T04:51:35;6.60;99.90
25568;DHT22;13455;51.480;7.594;2023-04-25T04:54:01;6.60;99.90
25568;DHT22;13455;51.480;7.594;2023-04-25T04:56:30;6.60;99.90
25568;DHT22;13455;51.480;7.594;2023-04-25T04:58:57;6.60;99.90
25568;DHT22;13455;51.480;7.594;2023-04-25T05:01:22;6.60;99.90
25568;DHT22;13455;51.480;7.594;2023-04-25T05:03:48;6.60;99.90
25568;DHT22;13455;51.480;7.594;2023-04-25T05:06:14;6.60;99.90
25568;DHT22;13455;51.480;7.594;2023-04-25T05:08:39;6.60;99.90
25568;DHT22;13455;51.480;7.594;2023-04-25T05:11:05;6.70;99.90
25568;DHT22;13455;51.480;7.594;2023-04-25T05:13:31;6.60;99.90
25568;DHT22;13455;51.480;7.594;2023-04-25T05:15:56;6.50;99.90
25568;DHT22;13455;51.480;7.594;2023-04-25T05:18:22;6.80;99.90
25568;DHT22;13455;51.480;7.594;2023-04-25T05:20:48;6.60;99.90
25568;DHT22;13455;51.480;7.594;2023-04-25T05:23:13;6.60;99.90
25568;DHT22;13455;51.480;7.594;2023-04-25T05:25:39;6.50;99.90
25568;DHT22;13455;51.480;7.594;2023-04-25T05:28:04;6.60;99.90
25568;DHT22;13455;51.480;7.594;2023-04-25T05:30:31;6.70;99.90
25568;DHT22;13455;51.480;7.594;2023-04-25T05:32:56;6.60;99.90
25568;DHT22;13455;51.480;7.594;2023-04-25T05:35:22;6.60;99.90
25568;DHT22;13455;51.480;7.594;2023-04-25T05:37:47;6.60;99.90
25568;DHT22;13455;51.480;7.594;2023-04-25T05:40:13;6.60;99.90
25568;DHT22;13455;51.480;7.594;2023-04-25T05:42:39;6.60;99.90
25568;DHT22;13455;51.480;7.594;2023-04-25T05:45:05;6.60;99.90
25568;DHT22;13455;51.480;7.594;2023-04-25T05:47:30;6.60;99.90
25568;DHT22;13455;51.480;7.594;2023-04-25T05:49:56;6.60;99.90
25568;DHT22;13455;51.480;7.594;2023-04-25T05:52:22;6.80;99.90
25568;DHT22;13455;51.480;7.594;2023-04-25T05:54:48;6.80;99.90
25568;DHT22;13455;51.480;7.594;2023-04-25T05:57:23;6.70;99.90
25568;DHT22;13455;51.480;7.594;2023-04-25T05:59:50;6.80;99.90
25568;DHT22;13455;51.480;7.594;2023-04-25T06:02:15;6.90;99.90
25568;DHT22;13455;51.480;7.594;2023-04-25T06:04:41;7.00;99.90
25568;DHT22;13455;51.480;7.594;2023-04-25T06:07:07;7.10;99.90
25568;DHT22;13455;51.480;7.594;2023-04-25T06:09:32;7.20;99.90
25568;DHT22;13455;51.480;7.594;2023-04-25T06:11:58;7.30;99.90
25568;DHT22;13455;51.480;7.594;2023-04-25T06:14:24;7.30;99.90
25568;DHT22;13455;51.480;7.594;2023-04-25T06:16:49;7.40;99.90
25568;DHT22;13455;51.480;7.594;2023-04-25T06:19:15;7.40;99.90
25568;DHT22;13455;51.480;7.594;2023-04-25T06:21:43;7.40;99.90
25568;DHT22;13455;51.480;7.594;2023-04-25T06:24:08;7.50;99.90
25568;DHT22;13455;51.480;7.594;2023-04-25T06:26:34;7.50;99.90
25568;DHT22;13455;51.480;7.594;2023-04-25T06:28:59;7.50;99.90
25568;DHT22;13455;51.480;7.594;2023-04-25T06:31:25;7.50;99.90
25568;DHT22;13455;51.480;7.594;2023-04-25T06:33:51;7.50;99.90
25568;DHT22;13455;51.480;7.594;2023-04-25T06:36:20;7.50;99.90
25568;DHT22;13455;51.480;7.594;2023-04-25T06:38:50;7.50;99.90
25568;DHT22;13455;51.480;7.594;2023-04-25T06:41:16;7.60;99.90
25568;DHT22;13455;51.480;7.594;2023-04-25T06:43:42;7.80;99.90
25568;DHT22;13455;51.480;7.594;2023-04-25T06:46:07;7.60;99.90
25568;DHT22;13455;51.480;7.594;2023-04-25T06:48:33;7.60;99.90
25568;DHT22;13455;51.480;7.594;2023-04-25T06:50:58;7.60;99.90
25568;DHT22;13455;51.480;7.594;2023-04-25T06:53:24;7.70;99.90
25568;DHT22;13455;51.480;7.594;2023-04-25T06:55:50;7.70;99.90
25568;DHT22;13455;51.480;7.594;2023-04-25T06:58:15;7.70;99.90
25568;DHT22;13455;51.480;7.594;2023-04-25T07:00:41;7.70;99.90
25568;DHT22;13455;51.480;7.594;2023-04-25T07:03:07;7.60;99.90
25568;DHT22;13455;51.480;7.594;2023-04-25T07:05:33;7.70;99.90
25568;DHT22;13455;51.480;7.594;2023-04-25T07:07:58;7.80;99.90
25568;DHT22;13455;51.480;7.594;2023-04-25T07:10:25;7.80;99.90
25568;DHT22;13455;51.480;7.594;2023-04-25T07:12:51;7.90;99.90
25568;DHT22;13455;51.480;7.594;2023-04-25T07:15:16;8.10;99.90
25568;DHT22;13455;51.480;7.594;2023-04-25T07:17:42;8.30;99.90
25568;DHT22;13455;51.480;7.594;2023-04-25T07:20:08;8.30;99.90
25568;DHT22;13455;51.480;7.594;2023-04-25T07:22:34;8.40;99.90
25568;DHT22;13455;51.480;7.594;2023-04-25T07:25:00;8.40;99.90
25568;DHT22;13455;51.480;7.594;2023-04-25T07:27:26;8.40;99.90
25568;DHT22;13455;51.480;7.594;2023-04-25T07:29:52;8.40;99.90
25568;DHT22;13455;51.480;7.594;2023-04-25T07:32:17;8.50;99.90
25568;DHT22;13455;51.480;7.594;2023-04-25T07:34:43;8.60;99.90
25568;DHT22;13455;51.480;7.594;2023-04-25T07:39:34;8.60;99.90
25568;DHT22;13455;51.480;7.594;2023-04-25T07:42:00;8.70;99.90
25568;DHT22;13455;51.480;7.594;2023-04-25T07:44:27;8.70;99.90
25568;DHT22;13455;51.480;7.594;2023-04-25T07:46:53;8.70;99.90
25568;DHT22;13455;51.480;7.594;2023-04-25T07:49:18;8.70;99.90
25568;DHT22;13455;51.480;7.594;2023-04-25T07:51:44;8.90;99.90
25568;DHT22;13455;51.480;7.594;2023-04-25T07:56:38;8.90;99.90
25568;DHT22;13455;51.480;7.594;2023-04-25T07:59:04;8.80;99.90
25568;DHT22;13455;51.480;7.594;2023-04-25T08:01:29;8.70;99.90
25568;DHT22;13455;51.480;7.594;2023-04-25T08:06:21;8.70;99.90
25568;DHT22;13455;51.480;7.594;2023-04-25T08:08:46;8.80;99.90
25568;DHT22;13455;51.480;7.594;2023-04-25T08:11:12;8.80;99.90
25568;DHT22;13455;51.480;7.594;2023-04-25T08:13:38;8.90;99.90
25568;DHT22;13455;51.480;7.594;2023-04-25T08:16:03;9.00;99.90
25568;DHT22;13455;51.480;7.594;2023-04-25T08:18:29;9.00;99.90
25568;DHT22;13455;51.480;7.594;2023-04-25T08:20:56;9.00;99.90
25568;DHT22;13455;51.480;7.594;2023-04-25T08:23:22;9.00;99.90
25568;DHT22;13455;51.480;7.594;2023-04-25T08:30:40;9.40;99.90
25568;DHT22;13455;51.480;7.594;2023-04-25T08:35:33;9.30;99.90
25568;DHT22;13455;51.480;7.594;2023-04-25T08:45:22;10.10;99.90
25568;DHT22;13455;51.480;7.594;2023-04-25T08:50:18;9.70;99.90
25568;DHT22;13455;51.480;7.594;2023-04-25T08:52:47;9.60;99.90
25568;DHT22;13455;51.480;7.594;2023-04-25T08:55:13;9.60;99.90
25568;DHT22;13455;51.480;7.594;2023-04-25T08:57:41;9.60;99.90
25568;DHT22;13455;51.480;7.594;2023-04-25T09:00:09;9.70;99.90
25568;DHT22;13455;51.480;7.594;2023-04-25T09:02:35;9.70;99.90
25568;DHT22;13455;51.480;7.594;2023-04-25T09:05:02;9.90;99.90
25568;DHT22;13455;51.480;7.594;2023-04-25T09:07:29;9.90;99.90
25568;DHT22;13455;51.480;7.594;2023-04-25T09:09:55;10.10;99.90
25568;DHT22;13455;51.480;7.594;2023-04-25T09:12:21;10.40;99.90
25568;DHT22;13455;51.480;7.594;2023-04-25T09:34:54;10.90;99.90
25568;DHT22;13455;51.480;7.594;2023-04-25T09:37:30;10.80;99.90
25568;DHT22;13455;51.480;7.594;2023-04-25T09:39:57;10.80;99.90
25568;DHT22;13455;51.480;7.594;2023-04-25T09:42:30;10.80;99.90
25568;DHT22;13455;51.480;7.594;2023-04-25T09:49:51;10.80;99.90
25568;DHT22;13455;51.480;7.594;2023-04-25T09:52:19;10.70;99.90
25568;DHT22;13455;51.480;7.594;2023-04-25T09:54:46;10.80;99.90
25568;DHT22;13455;51.480;7.594;2023-04-25T09:57:20;10.70;99.90
25568;DHT22;13455;51.480;7.594;2023-04-25T09:59:46;10.80;99.90
25568;DHT22;13455;51.480;7.594;2023-04-25T10:04:41;10.80;99.90
25568;DHT22;13455;51.480;7.594;2023-04-25T10:07:07;11.30;99.90
25568;DHT22;13455;51.480;7.594;2023-04-25T10:09:36;11.00;99.90
25568;DHT22;13455;51.480;7.594;2023-04-25T10:12:03;10.90;99.90
25568;DHT22;13455;51.480;7.594;2023-04-25T10:14:30;10.60;99.90
25568;DHT22;13455;51.480;7.594;2023-04-25T10:16:57;10.70;99.90
25568;DHT22;13455;51.480;7.594;2023-04-25T10:24:27;10.60;99.90
25568;DHT22;13455;51.480;7.594;2023-04-25T10:26:52;11.20;99.90
25568;DHT22;13455;51.480;7.594;2023-04-25T10:29:22;11.10;99.90
25568;DHT22;13455;51.480;7.594;2023-04-25T10:31:49;11.20;99.90
25568;DHT22;13455;51.480;7.594;2023-04-25T10:34:16;11.40;99.90
25568;DHT22;13455;51.480;7.594;2023-04-25T10:36:42;11.70;99.90
25568;DHT22;13455;51.480;7.594;2023-04-25T10:39:08;11.90;99.90
25568;DHT22;13455;51.480;7.594;2023-04-25T10:42:06;12.00;99.90
25568;DHT22;13455;51.480;7.594;2023-04-25T10:47:01;12.40;99.90
25568;DHT22;13455;51.480;7.594;2023-04-25T10:49:42;12.40;99.90
25568;DHT22;13455;51.480;7.594;2023-04-25T10:54:55;12.30;99.90
25568;DHT22;13455;51.480;7.594;2023-04-25T11:02:31;12.00;99.90
25568;DHT22;13455;51.480;7.594;2023-04-25T11:04:57;11.90;99.90
25568;DHT22;13455;51.480;7.594;2023-04-25T11:07:49;11.90;99.90
25568;DHT22;13455;51.480;7.594;2023-04-25T11:12:42;11.80;99.90
25568;DHT22;13455;51.480;7.594;2023-04-25T11:15:08;11.80;99.90
25568;DHT22;13455;51.480;7.594;2023-04-25T11:17:34;11.70;99.90
25568;DHT22;13455;51.480;7.594;2023-04-25T11:20:00;11.70;99.90
25568;DHT22;13455;51.480;7.594;2023-04-25T11:22:27;11.40;99.90
25568;DHT22;13455;51.480;7.594;2023-04-25T11:24:53;11.40;99.90
25568;DHT22;13455;51.480;7.594;2023-04-25T11:27:19;11.30;99.90
25568;DHT22;13455;51.480;7.594;2023-04-25T11:29:45;11.40;99.90
25568;DHT22;13455;51.480;7.594;2023-04-25T11:32:14;11.10;99.90
25568;DHT22;13455;51.480;7.594;2023-04-25T11:34:43;11.10;99.90
25568;DHT22;13455;51.480;7.594;2023-04-25T11:37:10;11.20;99.90
25568;DHT22;13455;51.480;7.594;2023-04-25T11:39:37;11.30;99.90
25568;DHT22;13455;51.480;7.594;2023-04-25T11:42:04;11.40;99.90
25568;DHT22;13455;51.480;7.594;2023-04-25T11:44:31;11.30;99.90
25568;DHT22;13455;51.480;7.594;2023-04-25T11:46:56;11.40;99.90
25568;DHT22;13455;51.480;7.594;2023-04-25T11:49:22;11.40;99.90
25568;DHT22;13455;51.480;7.594;2023-04-25T11:51:50;11.50;99.90
25568;DHT22;13455;51.480;7.594;2023-04-25T11:54:16;11.50;99.90
25568;DHT22;13455;51.480;7.594;2023-04-25T11:56:42;11.70;99.90
25568;DHT22;13455;51.480;7.594;2023-04-25T11:59:08;11.70;99.90
25568;DHT22;13455;51.480;7.594;2023-04-25T12:01:39;11.80;99.90
25568;DHT22;13455;51.480;7.594;2023-04-25T12:06:41;11.80;99.90
25568;DHT22;13455;51.480;7.594;2023-04-25T12:09:09;11.90;99.90
25568;DHT22;13455;51.480;7.594;2023-04-25T12:11:52;12.10;99.90
25568;DHT22;13455;51.480;7.594;2023-04-25T12:14:26;12.40;99.90
25568;DHT22;13455;51.480;7.594;2023-04-25T12:16:56;12.70;99.90
25568;DHT22;13455;51.480;7.594;2023-04-25T12:21:50;13.00;99.90
25568;DHT22;13455;51.480;7.594;2023-04-25T12:24:26;13.40;99.90
25568;DHT22;13455;51.480;7.594;2023-04-25T12:29:26;13.90;99.90
25568;DHT22;13455;51.480;7.594;2023-04-25T12:31:52;14.50;99.90
25568;DHT22;13455;51.480;7.594;2023-04-25T12:34:19;14.50;99.90
25568;DHT22;13455;51.480;7.594;2023-04-25T12:41:47;15.60;95.30
25568;DHT22;13455;51.480;7.594;2023-04-25T12:44:13;15.70;95.80
25568;DHT22;13455;51.480;7.594;2023-04-25T12:46:40;16.00;94.20
25568;DHT22;13455;51.480;7.594;2023-04-25T12:51:34;16.30;93.30
25568;DHT22;13455;51.480;7.594;2023-04-25T12:54:00;16.90;92.70
25568;DHT22;13455;51.480;7.594;2023-04-25T12:56:27;17.20;91.30
25568;DHT22;13455;51.480;7.594;2023-04-25T12:58:53;17.50;96.50
25568;DHT22;13455;51.480;7.594;2023-04-25T13:01:19;17.20;84.80
25568;DHT22;13455;51.480;7.594;2023-04-25T13:03:45;16.90;83.60
25568;DHT22;13455;51.480;7.594;2023-04-25T13:06:11;16.50;92.80
25568;DHT22;13455;51.480;7.594;2023-04-25T13:08:36;16.30;86.50
25568;DHT22;13455;51.480;7.594;2023-04-25T13:11:04;16.10;89.50
25568;DHT22;13455;51.480;7.594;2023-04-25T13:13:29;15.30;76.10
25568;DHT22;13455;51.480;7.594;2023-04-25T13:15:57;15.20;76.80
25568;DHT22;13455;51.480;7.594;2023-04-25T13:18:22;15.20;80.10
25568;DHT22;13455;51.480;7.594;2023-04-25T13:20:52;15.10;76.90
25568;DHT22;13455;51.480;7.594;2023-04-25T13:23:18;14.70;77.80
25568;DHT22;13455;51.480;7.594;2023-04-25T13:25:44;15.00;77.60
25568;DHT22;13455;51.480;7.594;2023-04-25T13:28:10;14.90;78.60
25568;DHT22;13455;51.480;7.594;2023-04-25T13:30:36;14.90;78.30
25568;DHT22;13455;51.480;7.594;2023-04-25T13:33:02;14.90;77.70
25568;DHT22;13455;51.480;7.594;2023-04-25T13:35:29;14.60;73.70
25568;DHT22;13455;51.480;7.594;2023-04-25T13:37:55;14.60;78.60
25568;DHT22;13455;51.480;7.594;2023-04-25T13:40:22;14.80;78.90
25568;DHT22;13455;51.480;7.594;2023-04-25T13:42:48;15.20;90.90
25568;DHT22;13455;51.480;7.594;2023-04-25T13:45:13;15.60;90.50
25568;DHT22;13455;51.480;7.594;2023-04-25T13:47:39;15.90;85.20
25568;DHT22;13455;51.480;7.594;2023-04-25T13:50:05;16.20;77.90
25568;DHT22;13455;51.480;7.594;2023-04-25T13:52:31;16.60;79.60
25568;DHT22;13455;51.480;7.594;2023-04-25T13:54:57;17.20;76.00
25568;DHT22;13455;51.480;7.594;2023-04-25T13:57:23;17.30;77.60
25568;DHT22;13455;51.480;7.594;2023-04-25T13:59:48;17.20;75.10
25568;DHT22;13455;51.480;7.594;2023-04-25T14:02:14;17.30;75.20
25568;DHT22;13455;51.480;7.594;2023-04-25T14:04:40;17.20;73.60
25568;DHT22;13455;51.480;7.594;2023-04-25T14:07:06;17.10;71.10
25568;DHT22;13455;51.480;7.594;2023-04-25T14:09:32;16.90;71.40
25568;DHT22;13455;51.480;7.594;2023-04-25T14:11:57;16.30;71.80
25568;DHT22;13455;51.480;7.594;2023-04-25T14:14:23;15.80;75.50
25568;DHT22;13455;51.480;7.594;2023-04-25T14:16:49;15.10;76.80
25568;DHT22;13455;51.480;7.594;2023-04-25T14:21:42;14.40;79.10
25568;DHT22;13455;51.480;7.594;2023-04-25T14:24:08;14.30;81.70
25568;DHT22;13455;51.480;7.594;2023-04-25T14:26:34;14.20;80.20
25568;DHT22;13455;51.480;7.594;2023-04-25T14:31:26;14.20;80.50
25568;DHT22;13455;51.480;7.594;2023-04-25T14:33:53;14.30;84.90
25568;DHT22;13455;51.480;7.594;2023-04-25T14:41:11;16.00;91.70
25568;DHT22;13455;51.480;7.594;2023-04-25T14:43:37;16.40;87.40
25568;DHT22;13455;51.480;7.594;2023-04-25T14:46:05;16.70;84.00
25568;DHT22;13455;51.480;7.594;2023-04-25T14:48:32;17.20;85.50
25568;DHT22;13455;51.480;7.594;2023-04-25T14:50:58;17.20;86.20
25568;DHT22;13455;51.480;7.594;2023-04-25T14:53:25;18.00;85.60
25568;DHT22;13455;51.480;7.594;2023-04-25T14:55:50;18.00;86.30
25568;DHT22;13455;51.480;7.594;2023-04-25T14:58:16;18.70;84.70
25568;DHT22;13455;51.480;7.594;2023-04-25T15:03:09;20.20;79.60
25568;DHT22;13455;51.480;7.594;2023-04-25T15:05:37;20.40;76.80
25568;DHT22;13455;51.480;7.594;2023-04-25T15:08:02;20.40;67.70
25568;DHT22;13455;51.480;7.594;2023-04-25T15:10:28;19.70;63.30
25568;DHT22;13455;51.480;7.594;2023-04-25T15:12:54;19.40;61.80
25568;DHT22;13455;51.480;7.594;2023-04-25T15:15:20;18.90;59.50
25568;DHT22;13455;51.480;7.594;2023-04-25T15:17:46;18.50;59.20
25568;DHT22;13455;51.480;7.594;2023-04-25T15:20:13;18.00;59.20
25568;DHT22;13455;51.480;7.594;2023-04-25T15:22:40;17.50;61.80
25568;DHT22;13455;51.480;7.594;2023-04-25T15:25:06;16.50;66.20
25568;DHT22;13455;51.480;7.594;2023-04-25T15:27:33;16.10;69.00
25568;DHT22;13455;51.480;7.594;2023-04-25T15:32:29;15.40;71.30
25568;DHT22;13455;51.480;7.594;2023-04-25T15:34:55;15.20;74.10
25568;DHT22;13455;51.480;7.594;2023-04-25T15:37:20;15.00;75.00
25568;DHT22;13455;51.480;7.594;2023-04-25T15:39:46;15.00;76.90
25568;DHT22;13455;51.480;7.594;2023-04-25T15:42:11;15.20;90.90
25568;DHT22;13455;51.480;7.594;2023-04-25T15:44:37;15.10;77.00
25568;DHT22;13455;51.480;7.594;2023-04-25T15:47:03;14.70;77.70
25568;DHT22;13455;51.480;7.594;2023-04-25T15:49:28;14.80;84.70
25568;DHT22;13455;51.480;7.594;2023-04-25T15:54:21;14.40;77.20
25568;DHT22;13455;51.480;7.594;2023-04-25T15:56:47;14.20;77.90
25568;DHT22;13455;51.480;7.594;2023-04-25T15:59:13;14.10;77.80
25568;DHT22;13455;51.480;7.594;2023-04-25T16:04:05;14.10;78.50
25568;DHT22;13455;51.480;7.594;2023-04-25T16:06:31;14.20;82.70
25568;DHT22;13455;51.480;7.594;2023-04-25T16:08:58;14.20;82.00
25568;DHT22;13455;51.480;7.594;2023-04-25T16:13:50;14.50;84.10
25568;DHT22;13455;51.480;7.594;2023-04-25T16:16:16;14.90;87.30
25568;DHT22;13455;51.480;7.594;2023-04-25T16:23:34;16.50;78.20
25568;DHT22;13455;51.480;7.594;2023-04-25T16:25:59;17.30;77.70
25568;DHT22;13455;51.480;7.594;2023-04-25T16:28:25;18.00;84.50
25568;DHT22;13455;51.480;7.594;2023-04-25T16:30:50;18.30;73.30
25568;DHT22;13455;51.480;7.594;2023-04-25T16:35:42;19.60;64.90
25568;DHT22;13455;51.480;7.594;2023-04-25T16:38:08;19.50;63.50
25568;DHT22;13455;51.480;7.594;2023-04-25T16:40:33;18.60;62.00
25568;DHT22;13455;51.480;7.594;2023-04-25T16:43:00;17.50;61.30
25568;DHT22;13455;51.480;7.594;2023-04-25T16:45:26;16.60;61.80
25568;DHT22;13455;51.480;7.594;2023-04-25T16:47:51;16.20;62.50
25568;DHT22;13455;51.480;7.594;2023-04-25T16:50:17;15.70;64.50
25568;DHT22;13455;51.480;7.594;2023-04-25T16:52:43;15.30;65.60
25568;DHT22;13455;51.480;7.594;2023-04-25T16:55:09;14.90;65.90
25568;DHT22;13455;51.480;7.594;2023-04-25T16:57:35;14.60;68.00
25568;DHT22;13455;51.480;7.594;2023-04-25T17:04:59;13.60;99.90
25568;DHT22;13455;51.480;7.594;2023-04-25T17:07:25;13.40;74.40
25568;DHT22;13455;51.480;7.594;2023-04-25T17:17:11;12.80;79.40
25568;DHT22;13455;51.480;7.594;2023-04-25T17:19:37;12.70;79.80
25568;DHT22;13455;51.480;7.594;2023-04-25T17:22:03;12.70;81.30
25568;DHT22;13455;51.480;7.594;2023-04-25T17:24:28;12.60;81.70
25568;DHT22;13455;51.480;7.594;2023-04-25T17:26:54;12.60;82.30
25568;DHT22;13455;51.480;7.594;2023-04-25T17:29:21;12.50;82.10
25568;DHT22;13455;51.480;7.594;2023-04-25T17:31:48;12.50;82.90
25568;DHT22;13455;51.480;7.594;2023-04-25T17:34:14;12.40;83.50
25568;DHT22;13455;51.480;7.594;2023-04-25T17:39:12;12.10;84.00
25568;DHT22;13455;51.480;7.594;2023-04-25T17:41:41;12.00;84.70
25568;DHT22;13455;51.480;7.594;2023-04-25T17:46:33;11.80;85.90
25568;DHT22;13455;51.480;7.594;2023-04-25T17:48:59;11.70;87.50
25568;DHT22;13455;51.480;7.594;2023-04-25T17:51:25;11.50;87.60
25568;DHT22;13455;51.480;7.594;2023-04-25T17:53:51;11.20;87.20
25568;DHT22;13455;51.480;7.594;2023-04-25T17:56:16;11.20;88.00
25568;DHT22;13455;51.480;7.594;2023-04-25T17:58:43;11.20;88.50
25568;DHT22;13455;51.480;7.594;2023-04-25T18:01:09;11.10;89.10
25568;DHT22;13455;51.480;7.594;2023-04-25T18:03:34;11.10;91.40
25568;DHT22;13455;51.480;7.594;2023-04-25T18:06:02;10.90;95.90
25568;DHT22;13455;51.480;7.594;2023-04-25T18:08:29;11.10;93.10
25568;DHT22;13455;51.480;7.594;2023-04-25T18:10:55;11.00;90.10
25568;DHT22;13455;51.480;7.594;2023-04-25T18:13:21;11.40;98.50
25568;DHT22;13455;51.480;7.594;2023-04-25T18:15:47;11.50;99.90
25568;DHT22;13455;51.480;7.594;2023-04-25T18:18:12;11.20;99.90
25568;DHT22;13455;51.480;7.594;2023-04-25T18:20:45;10.90;95.40
25568;DHT22;13455;51.480;7.594;2023-04-25T18:23:10;10.90;94.30
25568;DHT22;13455;51.480;7.594;2023-04-25T18:25:36;10.90;92.50
25568;DHT22;13455;51.480;7.594;2023-04-25T18:30:28;10.60;99.90
25568;DHT22;13455;51.480;7.594;2023-04-25T18:32:55;10.70;95.70
25568;DHT22;13455;51.480;7.594;2023-04-25T18:35:20;10.40;91.70
25568;DHT22;13455;51.480;7.594;2023-04-25T18:37:46;10.30;91.70
25568;DHT22;13455;51.480;7.594;2023-04-25T18:40:12;10.30;91.90
25568;DHT22;13455;51.480;7.594;2023-04-25T18:42:40;10.20;92.10
25568;DHT22;13455;51.480;7.594;2023-04-25T18:45:06;10.10;92.40
25568;DHT22;13455;51.480;7.594;2023-04-25T18:47:32;9.80;93.60
25568;DHT22;13455;51.480;7.594;2023-04-25T18:49:58;9.80;92.70
25568;DHT22;13455;51.480;7.594;2023-04-25T18:52:23;9.70;92.80
25568;DHT22;13455;51.480;7.594;2023-04-25T18:54:50;9.70;93.00
25568;DHT22;13455;51.480;7.594;2023-04-25T18:57:16;9.60;92.80
25568;DHT22;13455;51.480;7.594;2023-04-25T18:59:43;10.00;94.90
25568;DHT22;13455;51.480;7.594;2023-04-25T19:02:10;9.50;93.40
25568;DHT22;13455;51.480;7.594;2023-04-25T19:04:35;9.30;93.50
25568;DHT22;13455;51.480;7.594;2023-04-25T19:11:54;9.40;93.60
25568;DHT22;13455;51.480;7.594;2023-04-25T19:14:20;9.90;97.40
25568;DHT22;13455;51.480;7.594;2023-04-25T19:16:45;9.30;96.70
25568;DHT22;13455;51.480;7.594;2023-04-25T19:19:11;9.20;94.50
25568;DHT22;13455;51.480;7.594;2023-04-25T19:24:03;9.20;94.80
25568;DHT22;13455;51.480;7.594;2023-04-25T19:26:30;9.10;95.10
25568;DHT22;13455;51.480;7.594;2023-04-25T19:29:12;9.80;95.70
25568;DHT22;13455;51.480;7.594;2023-04-25T19:31:40;9.00;95.60
25568;DHT22;13455;51.480;7.594;2023-04-25T19:34:07;9.00;96.10
25568;DHT22;13455;51.480;7.594;2023-04-25T19:36:35;9.40;96.40
25568;DHT22;13455;51.480;7.594;2023-04-25T19:41:32;8.70;96.70
25568;DHT22;13455;51.480;7.594;2023-04-25T19:43:58;8.70;97.30
25568;DHT22;13455;51.480;7.594;2023-04-25T19:46:29;8.60;97.40
25568;DHT22;13455;51.480;7.594;2023-04-25T19:48:56;8.60;97.70
25568;DHT22;13455;51.480;7.594;2023-04-25T19:51:22;8.50;98.00
25568;DHT22;13455;51.480;7.594;2023-04-25T19:53:47;8.50;98.70
25568;DHT22;13455;51.480;7.594;2023-04-25T19:58:39;8.30;98.80
25568;DHT22;13455;51.480;7.594;2023-04-25T20:01:05;8.40;99.90
25568;DHT22;13455;51.480;7.594;2023-04-25T20:03:31;8.30;99.90
25568;DHT22;13455;51.480;7.594;2023-04-25T20:05:56;8.30;99.50
25568;DHT22;13455;51.480;7.594;2023-04-25T20:08:22;8.30;99.90
25568;DHT22;13455;51.480;7.594;2023-04-25T20:10:48;8.10;99.90
25568;DHT22;13455;51.480;7.594;2023-04-25T20:13:14;8.70;99.90
25568;DHT22;13455;51.480;7.594;2023-04-25T20:15:39;8.10;99.90
25568;DHT22;13455;51.480;7.594;2023-04-25T20:18:05;8.10;99.90
25568;DHT22;13455;51.480;7.594;2023-04-25T20:20:31;8.20;99.90
25568;DHT22;13455;51.480;7.594;2023-04-25T20:25:23;7.90;99.90